Time;durP1;ratioP1;P1;durP2;ratioP2;P2;SDS_P1;SDS_P2;PMS_P1;PMS_P2;Temp;Humidity;BMP_temperature;BMP_pressure;BME280_temperature;BME280_humidity;BME280_pressure;Samples;Min_cycle;Max_cycle;Signal;HPM_P1;HPM_P2
2022/11/16 00:01:07;;;;;;;86.95;40.58;;;;;;;7.05;100.00;100347.50;5009922;28;20052;-74
2022/11/16 00:03:33;;;;;;;87.45;43.47;;;;;;;6.74;100.00;100342.72;5007853;28;20053;-77
2022/11/16 00:06:03;;;;;;;57.38;26.75;;;;;;;6.19;100.00;100218.53;5006273;28;20057;-76
2022/11/16 00:08:32;;;;;;;66.93;28.73;;;;;;;6.75;100.00;100292.31;4998568;28;20038;-75
2022/11/16 00:11:14;;;;;;;75.82;40.33;;;;;;;6.82;100.00;100276.75;5004973;28;20505;-74
2022/11/16 00:13:42;;;;;;;97.93;44.00;;;;;;;6.22;100.00;100196.00;5018166;28;20050;-75
2022/11/16 00:16:15;;;;;;;67.03;29.65;;;;;;;6.81;100.00;100277.59;5004180;28;20050;-77
2022/11/16 00:18:41;;;;;;;84.82;43.58;;;;;;;6.76;100.00;100293.19;4988984;28;20078;-75
2022/11/16 00:21:07;;;;;;;68.10;33.25;;;;;;;6.94;100.00;100311.69;4998834;28;20042;-73
2022/11/16 00:23:36;;;;;;;84.30;41.65;;;;;;;6.85;100.00;100282.00;5007297;28;20037;-76
2022/11/16 00:26:13;;;;;;;81.22;42.83;;;;;;;6.76;100.00;100296.66;5007367;28;20073;-75
2022/11/16 00:28:38;;;;;;;88.82;42.08;;;;;;;6.63;100.00;100232.19;5006959;28;20061;-76
2022/11/16 00:31:06;;;;;;;62.28;30.58;;;;;;;6.84;100.00;100269.84;5007311;28;20606;-74
2022/11/16 00:33:33;;;;;;;78.50;41.15;;;;;;;6.33;100.00;100202.25;4963141;28;20046;-75
2022/11/16 00:36:07;;;;;;;68.70;31.67;;;;;;;6.12;100.00;100148.09;4988032;28;20046;-74
2022/11/16 00:38:33;;;;;;;72.50;28.33;;;;;;;6.92;100.00;100281.22;4986949;28;20030;-73
2022/11/16 00:41:01;;;;;;;90.60;44.63;;;;;;;6.19;100.00;100141.25;4989886;28;20041;-74
2022/11/16 00:43:29;;;;;;;90.10;44.33;;;;;;;6.37;100.00;100164.09;5006975;28;20065;-74
2022/11/16 00:45:54;;;;;;;93.50;44.00;;;;;;;6.40;100.00;100192.78;4989211;28;21082;-75
2022/11/16 00:48:20;;;;;;;76.30;32.45;;;;;;;6.28;100.00;100185.66;5000972;28;20054;-75
2022/11/16 00:50:46;;;;;;;91.18;37.42;;;;;;;6.09;100.00;100142.88;5006167;28;20061;-75
2022/11/16 00:53:13;;;;;;;96.22;46.13;;;;;;;6.81;100.00;100291.50;4999865;28;20034;-75
2022/11/16 00:55:41;;;;;;;105.97;46.00;;;;;;;6.17;100.00;100156.00;4990305;28;20145;-75
2022/11/16 00:58:06;;;;;;;99.68;47.13;;;;;;;5.67;100.00;100062.41;5007533;28;20105;-75
2022/11/16 01:00:32;;;;;;;89.93;45.30;;;;;;;6.14;100.00;100122.09;5003799;28;20129;-74
2022/11/16 01:02:57;;;;;;;68.15;32.42;;;;;;;6.26;100.00;100126.59;5002525;28;20049;-75
2022/11/16 01:05:23;;;;;;;71.00;31.67;;;;;;;6.50;100.00;100225.03;5005894;28;20049;-74
2022/11/16 01:07:50;;;;;;;93.68;43.35;;;;;;;6.22;100.00;100184.72;4997643;28;20476;-74
2022/11/16 01:10:20;;;;;;;85.35;41.28;;;;;;;5.91;100.00;100120.00;5005491;28;20046;-75
2022/11/16 01:12:48;;;;;;;102.05;47.95;;;;;;;5.85;100.00;100093.00;5001975;28;20042;-76
2022/11/16 01:15:22;;;;;;;93.28;42.95;;;;;;;5.81;100.00;100054.78;5002208;28;20082;-74
2022/11/16 01:17:48;;;;;;;79.45;34.85;;;;;;;5.52;100.00;100018.78;4994271;28;20103;-74
2022/11/16 01:20:18;;;;;;;94.50;42.63;;;;;;;6.08;100.00;100130.69;5005775;28;20038;-74
2022/11/16 01:22:47;;;;;;;74.90;30.98;;;;;;;6.62;100.00;100201.75;4996589;28;20058;-74
2022/11/16 01:25:14;;;;;;;61.47;26.77;;;;;;;5.46;100.00;99988.38;4988104;28;20386;-74
2022/11/16 01:27:43;;;;;;;94.18;44.10;;;;;;;6.20;100.00;100109.13;5006846;28;20060;-75
2022/11/16 01:30:16;;;;;;;72.80;35.63;;;;;;;5.77;100.00;100026.94;4995096;28;20045;-74
2022/11/16 01:32:47;;;;;;;;;;;;;;;6.91;100.00;100219.50;4989336;28;20050;-73
2022/11/16 01:35:17;;;;;;;70.55;28.95;;;;;;;6.75;100.00;100161.06;5010709;28;19945;-76
2022/11/16 01:37:49;;;;;;;105.97;46.30;;;;;;;6.95;100.00;100216.03;5009574;28;20058;-76
2022/11/16 01:40:34;;;;;;;68.40;30.73;;;;;;;6.32;100.00;100079.75;4984249;28;20049;-75
2022/11/16 01:43:03;;;;;;;70.18;32.58;;;;;;;5.47;100.00;99932.88;4965667;28;20050;-75
2022/11/16 01:45:58;;;;;;;103.32;48.67;;;;;;;6.26;100.00;100085.75;4942226;28;20050;-74
2022/11/16 01:48:43;;;;;;;97.28;47.75;;;;;;;6.52;100.00;100113.88;4959201;28;20526;-74
2022/11/16 01:51:33;;;;;;;81.60;31.50;;;;;;;5.96;100.00;100074.97;4970969;28;20053;-75
2022/11/16 01:54:10;;;;;;;95.97;36.75;;;;;;;6.05;100.00;100029.06;4977363;28;20042;-74
2022/11/16 01:56:38;;;;;;;73.95;32.35;;;;;;;6.73;100.00;100153.22;4971503;28;20267;-74
2022/11/16 01:59:04;;;;;;;83.70;39.75;;;;;;;7.01;100.00;100204.81;4987917;28;20046;-76
2022/11/16 02:01:30;;;;;;;90.35;43.00;;;;;;;7.03;100.00;100198.75;4971017;28;20136;-75
2022/11/16 02:03:55;;;;;;;94.38;44.65;;;;;;;6.88;100.00;100152.53;4968240;28;20175;-76
2022/11/16 02:06:52;;;;;;;63.85;30.10;;;;;;;6.19;100.00;100073.53;4969754;28;20054;-75
2022/11/16 02:09:57;;;;;;;74.68;26.77;;;;;;;6.96;100.00;100195.19;4970973;28;20050;-75
2022/11/16 02:12:25;;;;;;;;;;;;;;;7.00;100.00;100192.63;4970036;28;20186;-73
2022/11/16 02:15:08;;;;;;;61.30;25.42;;;;;;;7.00;100.00;100196.13;4984003;28;19918;-75
2022/11/16 02:18:05;;;;;;;64.05;27.35;;;;;;;6.80;100.00;100133.28;4967905;28;20078;-73
2022/11/16 02:21:05;;;;;;;60.53;26.00;;;;;;;5.77;100.00;99967.94;4992042;28;20498;-75
2022/11/16 02:24:01;;;;;;;92.15;43.58;;;;;;;5.92;100.00;100014.09;4977497;28;20125;-75
2022/11/16 02:26:54;;;;;;;90.22;30.92;;;;;;;7.04;100.00;100168.31;4986070;28;20038;-75
2022/11/16 02:29:36;;;;;;;109.80;43.97;;;;;;;6.06;100.00;100002.19;4986690;28;20034;-74
2022/11/16 02:32:21;;;;;;;93.80;42.85;;;;;;;6.95;100.00;100174.31;4987722;28;20110;-75
2022/11/16 02:35:09;;;;;;;95.80;40.92;;;;;;;6.70;100.00;100110.59;5009939;28;20120;-77
2022/11/16 02:37:58;;;;;;;55.63;25.73;;;;;;;6.72;100.00;100134.97;4998251;28;20060;-75
2022/11/16 02:40:33;;;;;;;53.30;24.15;;;;;;;7.08;100.00;100151.84;4982041;28;20108;-75
2022/11/16 02:43:12;;;;;;;61.83;25.88;;;;;;;6.22;100.00;100007.56;5006922;28;20056;-74
2022/11/16 02:45:48;;;;;;;80.57;39.10;;;;;;;6.37;100.00;100022.47;5007140;28;20147;-76
2022/11/16 02:48:20;;;;;;;94.97;41.38;;;;;;;6.81;100.00;100110.69;4988865;28;20401;-75
2022/11/16 02:50:47;;;;;;;66.72;31.98;;;;;;;7.09;100.00;100150.97;4985026;28;20738;-75
2022/11/16 02:53:22;;;;;;;52.30;26.10;;;;;;;7.05;100.00;100155.31;5009550;28;20091;-75
2022/11/16 02:55:49;;;;;;;89.05;38.72;;;;;;;7.04;100.00;100166.56;4978793;28;20049;-76
2022/11/16 02:58:35;;;;;;;91.28;41.20;;;;;;;5.60;100.00;99917.44;5008433;28;20046;-77
2022/11/16 03:01:21;;;;;;;74.25;29.10;;;;;;;6.74;100.00;100095.00;4978346;28;20401;-75
2022/11/16 03:04:19;;;;;;;64.35;30.50;;;;;;;7.08;100.00;100142.28;4991811;28;20665;-75
2022/11/16 03:06:51;;;;;;;89.35;43.35;;;;;;;7.05;100.00;100141.41;4978810;28;20061;-75
2022/11/16 03:10:02;;;;;;;109.30;46.50;;;;;;;5.60;100.00;99901.81;4983235;28;20053;-76
2022/11/16 03:12:30;;;;;;;81.45;34.13;;;;;;;6.73;100.00;100094.97;4980584;28;20524;-76
2022/11/16 03:15:05;;;;;;;94.68;39.63;;;;;;;6.19;100.00;99999.72;5018807;28;20042;-74
2022/11/16 03:17:58;;;;;;;89.50;34.80;;;;;;;5.63;100.00;99894.91;4981165;28;20509;-75
2022/11/16 03:20:29;;;;;;;122.38;49.83;;;;;;;7.19;100.00;100129.34;5017208;28;20037;-75
2022/11/16 03:23:03;;;;;;;110.15;39.75;;;;;;;6.41;100.00;99998.19;4989080;28;20095;-77
2022/11/16 03:25:30;;;;;;;;;;;;;;;7.14;100.00;100128.41;5008064;28;20520;-77
2022/11/16 03:28:15;;;;;;;97.63;40.13;;;;;;;7.06;100.00;100117.91;5008291;28;19913;-75
2022/11/16 03:31:06;;;;;;;112.25;42.95;;;;;;;6.88;100.00;100073.38;4989151;28;20728;-76
2022/11/16 03:34:08;;;;;;;96.47;39.40;;;;;;;6.89;100.00;100098.63;5007683;28;20133;-75
2022/11/16 03:36:40;;;;;;;132.27;55.45;;;;;;;5.14;100.00;99774.66;5007492;28;20417;-76
2022/11/16 03:39:17;;;;;;;77.55;38.97;;;;;;;6.57;100.00;100017.47;4989442;28;20041;-74
2022/11/16 03:41:49;;;;;;;114.45;51.70;;;;;;;6.32;100.00;99963.38;4990736;28;20066;-74
2022/11/16 03:44:27;;;;;;;104.45;40.50;;;;;;;6.16;100.00;99909.38;4991092;28;20069;-76
2022/11/16 03:47:07;;;;;;;128.05;57.85;;;;;;;6.90;100.00;100056.03;5007772;28;20088;-74
2022/11/16 03:50:08;;;;;;;133.25;59.25;;;;;;;7.09;100.00;100083.13;5007160;28;20085;-74
2022/11/16 03:53:15;;;;;;;108.32;45.45;;;;;;;7.01;100.00;100077.00;5007587;28;20053;-75
2022/11/16 03:55:59;;;;;;;112.68;41.40;;;;;;;6.47;100.00;99972.22;5010374;28;20057;-76
2022/11/16 03:58:30;;;;;;;134.68;66.75;;;;;;;6.66;100.00;99989.75;5018224;28;20058;-76
2022/11/16 04:01:02;;;;;;;115.00;44.63;;;;;;;6.88;100.00;100016.91;4988000;28;20058;-74
2022/11/16 04:03:54;;;;;;;106.47;42.42;;;;;;;6.82;100.00;100024.66;4978517;28;20305;-75
2022/11/16 04:24:12;;;;;;;84.40;34.70;;;;;;;6.86;100.00;100023.84;5008725;28;20044;-75
2022/11/16 04:29:42;;;;;;;124.18;57.05;;;;;;;5.59;100.00;99767.31;4991495;28;20412;-74
2022/11/16 04:37:56;;;;;;;105.07;53.08;;;;;;;6.09;100.00;99892.81;4998933;28;20180;-75
2022/11/16 04:40:41;;;;;;;94.70;40.10;;;;;;;6.11;100.00;99909.34;4991150;28;20838;-74
2022/11/16 04:43:18;;;;;;;89.50;37.78;;;;;;;5.53;100.00;99775.09;4990118;28;20061;-75
2022/11/16 04:48:31;;;;;;;77.53;33.03;;;;;;;6.08;100.00;99924.91;4970856;28;20085;-74
2022/11/16 04:51:07;;;;;;;74.88;29.92;;;;;;;5.70;100.00;99838.59;4997971;28;20038;-75
2022/11/16 04:53:32;;;;;;;106.40;49.50;;;;;;;6.79;100.00;100024.66;4971129;28;20046;-75
2022/11/16 04:55:58;;;;;;;73.07;32.25;;;;;;;6.14;100.00;99895.47;5005343;28;20047;-74
2022/11/16 04:58:23;;;;;;;70.25;32.15;;;;;;;6.13;100.00;99910.25;4989595;28;20042;-74
2022/11/16 05:01:12;;;;;;;97.97;48.83;;;;;;;5.62;100.00;99863.63;4997068;28;20046;-75
2022/11/16 05:03:56;;;;;;;74.22;35.65;;;;;;;6.48;100.00;99982.63;5024162;28;20045;-78
2022/11/16 05:06:25;;;;;;;65.15;29.58;;;;;;;6.20;100.00;99899.84;5011043;28;20135;-75
2022/11/16 05:08:50;;;;;;;79.45;33.78;;;;;;;6.57;100.00;99979.25;5029686;28;20053;-74
2022/11/16 05:11:16;;;;;;;95.70;49.60;;;;;;;6.76;100.00;99986.34;5013584;28;20084;-75
2022/11/16 05:13:41;;;;;;;96.18;46.30;;;;;;;5.88;100.00;99850.91;5012819;28;20061;-75
2022/11/16 05:16:07;;;;;;;70.63;30.67;;;;;;;6.41;100.00;99941.72;5011294;28;20053;-75
2022/11/16 05:18:33;;;;;;;70.57;31.55;;;;;;;6.94;100.00;100014.34;5010617;28;20572;-75
2022/11/16 05:20:59;;;;;;;86.78;35.97;;;;;;;5.87;100.00;99838.75;5028604;28;20042;-73
2022/11/16 05:26:09;;;;;;;59.83;31.05;;;;;;;6.84;100.00;99982.97;4991326;28;20045;-75
2022/11/16 05:28:34;;;;;;;116.38;48.70;;;;;;;6.12;100.00;99884.16;4990778;28;20043;-75
2022/11/16 05:31:00;;;;;;;105.65;48.25;;;;;;;6.78;100.00;99988.13;4996050;28;20046;-75
2022/11/16 05:33:25;;;;;;;85.15;35.45;;;;;;;6.49;100.00;99967.88;4983371;28;20153;-75
2022/11/16 05:35:52;;;;;;;65.35;31.77;;;;;;;6.39;100.00;99911.31;5001258;28;20484;-74
2022/11/16 05:38:19;;;;;;;69.70;33.20;;;;;;;5.63;100.00;99784.72;5010378;28;20042;-73
2022/11/16 05:40:47;;;;;;;95.45;45.00;;;;;;;6.53;100.00;99943.56;4980476;28;20500;-74
2022/11/16 05:43:23;;;;;;;90.85;46.42;;;;;;;6.88;100.00;99984.72;4999098;28;20404;-73
2022/11/16 05:45:52;;;;;;;88.63;36.80;;;;;;;6.71;100.00;99956.78;5000406;28;20054;-74
2022/11/16 05:48:17;;;;;;;93.28;40.15;;;;;;;6.79;100.00;99988.16;4990255;28;20099;-75
2022/11/16 05:50:46;;;;;;;85.43;38.38;;;;;;;6.82;100.00;99992.50;5007469;28;20054;-74
2022/11/16 05:53:12;;;;;;;126.13;56.28;;;;;;;6.88;100.00;100002.97;5008819;28;20571;-74
2022/11/16 05:55:40;;;;;;;121.65;58.05;;;;;;;6.29;100.00;99900.81;4989226;28;20078;-73
2022/11/16 05:58:09;;;;;;;88.75;41.28;;;;;;;6.63;100.00;99973.22;4990104;28;20077;-73
2022/11/16 06:00:37;;;;;;;87.25;38.67;;;;;;;6.21;100.00;99902.47;4990498;28;20357;-73
2022/11/16 06:03:12;;;;;;;91.07;42.67;;;;;;;5.99;100.00;99859.72;5011372;28;20514;-75
2022/11/16 06:05:46;;;;;;;101.30;38.33;;;;;;;6.04;100.00;99872.78;4975914;28;20057;-74
2022/11/16 06:08:16;;;;;;;113.50;53.80;;;;;;;6.46;100.00;99906.19;5009568;28;20112;-75
2022/11/16 06:10:42;;;;;;;73.78;34.58;;;;;;;6.86;100.00;99960.34;4988036;28;20193;-79
2022/11/16 06:13:12;;;;;;;109.80;53.53;;;;;;;6.30;100.00;99876.50;5005461;28;20476;-74
2022/11/16 06:15:40;;;;;;;117.32;55.33;;;;;;;6.61;100.00;99946.28;5001904;28;20101;-77
2022/11/16 06:18:09;;;;;;;83.43;37.85;;;;;;;6.37;100.00;99918.25;4990582;28;20062;-78
2022/11/16 06:20:38;;;;;;;68.70;35.90;;;;;;;6.08;100.00;99905.81;5010795;28;20057;-75
2022/11/16 06:23:05;;;;;;;63.80;29.35;;;;;;;6.49;100.00;99953.13;4983595;28;20132;-73
2022/11/16 06:25:33;;;;;;;79.75;36.38;;;;;;;5.82;100.00;99811.78;4976423;28;20069;-75
2022/11/16 06:28:00;;;;;;;88.28;35.03;;;;;;;6.53;100.00;99883.63;4992192;28;20060;-73
2022/11/16 06:30:25;;;;;;;79.75;38.00;;;;;;;6.64;100.00;99902.84;4999223;28;20547;-75
2022/11/16 06:33:02;;;;;;;99.85;50.17;;;;;;;6.90;100.00;99959.53;4996769;28;20046;-73
2022/11/16 06:35:37;;;;;;;113.22;50.92;;;;;;;6.13;100.00;99808.66;4973205;28;20378;-75
2022/11/16 06:38:04;;;;;;;115.93;53.58;;;;;;;6.98;100.00;99950.03;4994895;28;20058;-75
2022/11/16 06:40:29;;;;;;;93.07;36.83;;;;;;;7.27;100.00;99972.84;5005877;28;20396;-74
2022/11/16 06:43:32;;;;;;;72.18;31.23;;;;;;;7.31;100.00;99965.03;5009331;28;20045;-75
2022/11/16 06:46:23;;;;;;;126.47;51.00;;;;;;;7.16;100.00;99963.22;5008574;28;20124;-74
2022/11/16 06:49:21;;;;;;;65.22;32.22;;;;;;;6.36;100.00;99823.56;4983933;28;20414;-75
2022/11/16 06:52:02;;;;;;;79.00;31.80;;;;;;;6.79;100.00;99941.22;4988615;28;20473;-75
2022/11/16 06:54:30;;;;;;;83.10;37.28;;;;;;;5.38;100.00;99677.78;5007392;28;20058;-77
2022/11/16 06:56:57;;;;;;;109.80;50.92;;;;;;;5.08;100.00;99648.06;5008372;28;20060;-75
2022/11/16 06:59:49;;;;;;;69.25;32.38;;;;;;;6.92;100.00;99953.47;5000463;28;20080;-77
2022/11/16 07:02:36;;;;;;;111.47;52.72;;;;;;;5.31;100.00;99701.16;5019256;28;20055;-74
2022/11/16 07:05:23;;;;;;;65.38;29.25;;;;;;;5.71;100.00;99794.34;5027416;28;20047;-75
2022/11/16 07:07:58;;;;;;;98.38;36.78;;;;;;;6.42;100.00;99873.13;5010366;28;20504;-74
2022/11/16 07:10:25;;;;;;;110.20;52.60;;;;;;;6.39;100.00;99835.75;5018255;28;20037;-76
2022/11/16 07:12:50;;;;;;;116.20;54.45;;;;;;;6.46;100.00;99882.75;5014231;28;20060;-75
2022/11/16 07:15:16;;;;;;;76.25;35.05;;;;;;;6.39;100.00;99835.75;5027569;28;20042;-75
2022/11/16 07:17:42;;;;;;;108.25;51.95;;;;;;;6.71;100.00;99872.47;5009922;28;20037;-76
2022/11/16 07:20:11;;;;;;;111.97;55.05;;;;;;;5.69;100.00;99715.38;5011413;28;20551;-76
2022/11/16 07:22:37;;;;;;;82.43;37.38;;;;;;;6.35;100.00;99816.63;5006202;28;20433;-74
2022/11/16 07:25:04;;;;;;;120.85;57.67;;;;;;;6.74;100.00;99902.06;5005832;28;20042;-75
2022/11/16 07:27:30;;;;;;;90.28;40.47;;;;;;;6.93;100.00;99899.56;5007224;28;20053;-76
2022/11/16 07:30:11;;;;;;;121.70;56.72;;;;;;;6.16;100.00;99773.94;4987928;28;20049;-75
2022/11/16 07:32:38;;;;;;;123.25;60.63;;;;;;;5.93;100.00;99745.94;5007538;28;20586;-74
2022/11/16 07:35:07;;;;;;;98.88;40.22;;;;;;;7.09;100.00;99919.66;4988661;28;20181;-77
2022/11/16 07:37:43;;;;;;;88.82;39.85;;;;;;;6.20;100.00;99754.84;4995830;28;20061;-74
2022/11/16 07:40:09;;;;;;;120.32;53.60;;;;;;;6.23;100.00;99783.53;4972701;28;20046;-73
2022/11/16 07:42:39;;;;;;;111.82;52.78;;;;;;;5.77;100.00;99684.19;4988318;28;20144;-75
2022/11/16 07:45:24;;;;;;;114.88;52.00;;;;;;;6.60;100.00;99829.81;5007291;28;20131;-76
2022/11/16 07:47:52;;;;;;;86.35;35.08;;;;;;;6.53;100.00;99829.78;4972352;28;20096;-74
2022/11/16 07:50:17;;;;;;;102.05;49.13;;;;;;;7.06;100.00;99903.13;5005470;28;20113;-75
2022/11/16 07:52:45;;;;;;;106.97;50.55;;;;;;;6.39;100.00;99794.06;5007336;28;20042;-76
2022/11/16 07:55:11;;;;;;;77.28;32.38;;;;;;;7.29;100.00;99931.97;5005865;28;20069;-76
2022/11/16 07:57:37;;;;;;;82.32;33.08;;;;;;;6.64;100.00;99811.59;5007459;28;20054;-75
2022/11/16 08:00:04;;;;;;;95.15;45.60;;;;;;;7.48;100.00;99907.69;4989617;28;20095;-74
2022/11/16 08:02:29;;;;;;;96.32;44.38;;;;;;;6.58;100.00;99777.69;5015392;28;20040;-75
2022/11/16 08:04:55;;;;;;;98.32;45.90;;;;;;;7.33;100.00;99895.44;5028219;28;20026;-77
2022/11/16 08:07:20;;;;;;;82.70;42.65;;;;;;;6.59;100.00;99769.00;5023210;28;20054;-74
2022/11/16 08:09:46;;;;;;;73.20;39.17;;;;;;;7.01;100.00;99824.84;5007031;28;20049;-76
2022/11/16 08:12:12;;;;;;;71.75;37.92;;;;;;;7.17;100.00;99885.81;5011431;28;20750;-76
2022/11/16 08:14:37;;;;;;;75.28;37.15;;;;;;;7.33;100.00;99932.00;5006689;28;20038;-73
2022/11/16 08:17:14;;;;;;;53.28;25.83;;;;;;;6.06;100.00;99726.13;5006100;28;20030;-73
2022/11/16 08:19:41;;;;;;;56.35;33.20;;;;;;;7.26;100.00;99904.13;4998816;28;20136;-75
2022/11/16 08:22:07;;;;;;;35.05;21.35;;;;;;;6.74;100.00;99795.16;5005267;28;20038;-73
2022/11/16 08:24:32;;;;;;;54.95;30.38;;;;;;;7.40;100.00;99928.53;5006209;28;20049;-73
2022/11/16 08:26:57;;;;;;;48.63;21.40;;;;;;;7.46;100.00;99914.63;5005002;28;20116;-72
2022/11/16 08:29:24;;;;;;;61.13;32.97;;;;;;;7.18;100.00;99849.25;5006917;28;20037;-74
2022/11/16 08:31:50;;;;;;;69.47;34.55;;;;;;;7.51;100.00;99884.19;5005964;28;20030;-76
2022/11/16 08:34:15;;;;;;;63.40;35.05;;;;;;;7.12;100.00;99804.91;5005238;28;20052;-75
2022/11/16 08:36:41;;;;;;;71.70;35.60;;;;;;;7.60;100.00;99863.34;5004782;28;20500;-76
2022/11/16 08:39:06;;;;;;;70.10;38.33;;;;;;;6.96;100.00;99783.09;5002317;28;20452;-77
2022/11/16 08:41:34;;;;;;;66.30;30.95;;;;;;;7.33;100.00;99869.34;5005111;28;20065;-76
2022/11/16 08:44:00;;;;;;;80.45;39.33;;;;;;;7.73;100.00;99885.16;5005179;28;20045;-72
2022/11/16 08:46:25;;;;;;;84.93;41.78;;;;;;;7.94;100.00;99897.41;5005055;28;20049;-71
2022/11/16 08:48:55;;;;;;;86.72;46.40;;;;;;;7.43;100.00;99801.53;5004298;28;20038;-73
2022/11/16 08:51:20;;;;;;;97.97;45.13;;;;;;;7.21;100.00;99745.78;5005761;28;20132;-77
2022/11/16 08:53:47;;;;;;;109.50;49.35;;;;;;;8.02;100.00;99898.28;5004675;28;20096;-75
2022/11/16 08:56:13;;;;;;;96.60;47.17;;;;;;;8.04;100.00;99896.53;4987786;28;20058;-74
2022/11/16 08:58:45;;;;;;;104.78;47.90;;;;;;;7.31;100.00;99771.91;4986477;28;20189;-75
2022/11/16 09:01:16;;;;;;;99.22;48.42;;;;;;;8.02;100.00;99866.06;4985604;28;20068;-75
2022/11/16 09:03:41;;;;;;;110.63;55.30;;;;;;;8.04;100.00;99898.28;5003232;28;20076;-76
2022/11/16 09:06:09;;;;;;;103.70;54.50;;;;;;;8.23;100.00;99884.38;5006609;28;20555;-75
2022/11/16 09:08:37;;;;;;;96.53;48.78;;;;;;;8.28;100.00;99873.94;5004265;28;20082;-75
2022/11/16 09:11:08;;;;;;;122.03;53.75;;;;;;;7.82;100.00;99766.78;5005698;28;20033;-75
2022/11/16 09:13:34;;;;;;;113.57;54.50;;;;;;;8.63;100.00;99878.31;5004260;28;20537;-79
2022/11/16 09:16:00;;;;;;;103.50;48.70;;;;;;;8.52;100.00;99867.88;4998896;28;20053;-75
2022/11/16 09:18:26;;;;;;;101.55;47.80;;;;;;;7.83;100.00;99751.09;4997272;28;20057;-75
2022/11/16 09:20:52;;;;;;;110.18;53.47;;;;;;;8.27;100.00;99847.81;5000403;28;20057;-75
2022/11/16 09:23:18;;;;;;;105.45;52.67;;;;;;;7.94;100.00;99771.16;5003139;28;20664;-74
2022/11/16 09:25:47;;;;;;;104.18;50.42;;;;;;;8.10;100.00;99764.16;4999573;28;20378;-76
2022/11/16 09:28:17;;;;;;;117.22;57.03;;;;;;;8.64;100.00;99864.38;4998981;28;20046;-74
2022/11/16 09:30:44;;;;;;;104.65;52.33;;;;;;;7.81;100.00;99731.94;5000614;28;20046;-75
2022/11/16 09:33:10;;;;;;;117.50;54.42;;;;;;;8.48;100.00;99826.91;5000360;28;20465;-72
2022/11/16 09:35:36;;;;;;;107.32;48.22;;;;;;;8.53;100.00;99826.91;5004597;28;20034;-74
2022/11/16 09:38:02;;;;;;;95.15;50.50;;;;;;;8.49;100.00;99840.84;5003098;28;20736;-76
2022/11/16 09:40:35;;;;;;;90.15;44.88;;;;;;;8.34;100.00;99847.81;5001390;28;20076;-74
2022/11/16 09:43:18;;;;;;;92.55;46.25;;;;;;;8.48;100.00;99840.00;5003304;28;20054;-76
2022/11/16 09:46:03;;;;;;;87.32;43.38;;;;;;;8.53;100.00;99848.69;5002608;28;20062;-75
2022/11/16 09:48:31;;;;;;;82.38;44.05;;;;;;;8.32;100.00;99833.00;4999770;28;20058;-74
2022/11/16 09:51:01;;;;;;;87.55;41.35;;;;;;;8.21;100.00;99817.28;4998341;28;20057;-73
2022/11/16 09:53:54;;;;;;;87.55;42.10;;;;;;;8.49;100.00;99830.38;5001673;28;20053;-75
2022/11/16 09:56:22;;;;;;;81.32;41.53;;;;;;;8.08;100.00;99743.28;4997193;28;20042;-76
2022/11/16 09:59:02;;;;;;;83.47;42.25;;;;;;;8.41;100.00;99791.19;5015751;28;20057;-76
2022/11/16 10:01:55;;;;;;;80.90;43.45;;;;;;;8.66;100.00;99816.44;5018575;28;20068;-76
2022/11/16 10:04:38;;;;;;;83.85;44.45;;;;;;;7.67;100.00;99681.47;5008828;28;20066;-78
2022/11/16 10:07:28;;;;;;;83.85;38.80;;;;;;;8.03;100.00;99709.31;5005021;28;20057;-76
2022/11/16 10:09:55;;;;;;;64.93;37.70;;;;;;;8.44;100.00;99802.50;5003668;28;20417;-79
2022/11/16 10:12:20;;;;;;;58.17;35.47;;;;;;;7.87;100.00;99709.34;5005165;28;20215;-79
2022/11/16 10:15:16;;;;;;;67.90;37.88;;;;;;;8.15;100.00;99784.22;5003536;28;20051;-78
2022/11/16 10:17:44;;;;;;;66.32;36.17;;;;;;;8.51;100.00;99800.75;5004539;28;20137;-75
2022/11/16 10:20:22;;;;;;;67.88;37.17;;;;;;;7.93;100.00;99698.88;5000684;28;20093;-78
2022/11/16 10:23:07;;;;;;;65.78;35.25;;;;;;;8.43;100.00;99764.16;4989214;28;20127;-77
2022/11/16 10:25:44;;;;;;;67.85;38.03;;;;;;;7.73;100.00;99657.13;5000239;28;20465;-74
2022/11/16 10:28:23;;;;;;;68.30;35.88;;;;;;;8.53;100.00;99774.63;5006703;28;20667;-75
2022/11/16 10:31:17;;;;;;;74.53;41.05;;;;;;;8.22;100.00;99769.41;5001503;28;20100;-80
2022/11/16 10:33:44;;;;;;;75.47;38.97;;;;;;;8.53;100.00;99770.25;5002910;28;20069;-76
2022/11/16 10:36:14;;;;;;;69.97;38.40;;;;;;;8.00;100.00;99656.19;5002038;28;20061;-76
2022/11/16 10:38:42;;;;;;;67.50;38.95;;;;;;;7.86;100.00;99652.72;4985220;28;20065;-77
2022/11/16 10:41:39;;;;;;;76.32;40.72;;;;;;;8.15;100.00;99663.16;5004574;28;20038;-76
2022/11/16 10:44:16;;;;;;;68.20;37.55;;;;;;;8.49;100.00;99762.41;4994011;28;20050;-75
2022/11/16 10:46:55;;;;;;;81.47;39.92;;;;;;;8.00;100.00;99651.81;5002545;28;20061;-75
2022/11/16 10:49:38;;;;;;;79.68;38.83;;;;;;;8.73;100.00;99759.72;5008337;28;20092;-74
2022/11/16 10:52:05;;;;;;;70.25;37.42;;;;;;;8.10;100.00;99620.44;4989934;28;20900;-76
2022/11/16 10:54:30;;;;;;;74.43;40.45;;;;;;;8.78;100.00;99742.28;5004988;28;20053;-76
2022/11/16 10:57:07;;;;;;;71.45;41.80;;;;;;;9.04;100.00;99747.41;5002054;28;20042;-75
2022/11/16 10:59:49;;;;;;;77.25;41.75;;;;;;;8.89;100.00;99744.84;5002344;28;20495;-76
2022/11/16 11:02:23;;;;;;;71.85;42.67;;;;;;;9.01;100.00;99755.28;5006434;28;20057;-77
2022/11/16 11:05:01;;;;;;;70.82;40.42;;;;;;;9.11;100.00;99740.41;4999463;28;20133;-77
2022/11/16 11:07:33;;;;;;;81.60;42.42;;;;;;;8.96;100.00;99733.47;4997916;28;20728;-75
2022/11/16 11:09:59;;;;;;;89.67;46.53;;;;;;;8.74;100.00;99653.38;5001997;28;20115;-81
2022/11/16 11:12:37;;;;;;;81.30;45.03;;;;;;;9.17;100.00;99726.41;4992847;28;20046;-76
2022/11/16 11:15:21;;;;;;;79.22;41.38;;;;;;;9.28;100.00;99724.59;5006245;28;20699;-77
2022/11/16 11:17:49;;;;;;;91.57;44.10;;;;;;;9.40;100.00;99719.28;5002520;28;20390;-81
2022/11/16 11:20:14;;;;;;;89.05;42.03;;;;;;;9.52;100.00;99719.19;5003624;28;20042;-73
2022/11/16 11:23:09;;;;;;;100.68;43.70;;;;;;;9.56;100.00;99724.44;4994125;28;20078;-74
2022/11/16 11:25:40;;;;;;;85.53;41.85;;;;;;;8.91;100.00;99585.25;4999569;28;20701;-77
2022/11/16 11:28:15;;;;;;;70.72;41.75;;;;;;;9.59;100.00;99685.97;5001556;28;20050;-75
2022/11/16 11:30:54;;;;;;;81.25;39.70;;;;;;;9.00;100.00;99614.84;4989049;28;20054;-76
2022/11/16 11:33:22;;;;;;;83.93;40.05;;;;;;;9.04;100.00;99606.09;4993486;28;20069;-78
2022/11/16 11:36:06;;;;;;;73.93;41.28;;;;;;;9.57;100.00;99711.31;4997001;28;20041;-78
2022/11/16 11:38:34;;;;;;;86.43;40.95;;;;;;;9.22;100.00;99672.28;4993638;28;20028;-73
2022/11/16 11:41:03;;;;;;;75.43;38.22;;;;;;;9.66;100.00;99699.91;5016615;28;20047;-74
2022/11/16 11:43:32;;;;;;;81.00;41.40;;;;;;;9.36;100.00;99673.03;5006491;28;20062;-75
2022/11/16 11:46:25;;;;;;;90.18;40.60;;;;;;;9.48;100.00;99680.84;4975158;28;20124;-75
2022/11/16 11:49:00;;;;;;;100.60;43.87;;;;;;;9.01;100.00;99572.13;4988051;28;20059;-75
2022/11/16 11:51:34;;;;;;;89.45;40.90;;;;;;;9.29;100.00;99600.66;4987672;28;20046;-76
2022/11/16 11:54:04;;;;;;;102.35;45.92;;;;;;;9.63;100.00;99695.56;5003273;28;20050;-74
2022/11/16 11:56:31;;;;;;;101.47;49.38;;;;;;;9.78;100.00;99673.59;5006911;28;20136;-75
2022/11/16 11:58:57;;;;;;;107.80;52.03;;;;;;;9.66;100.00;99684.19;4989040;28;20022;-74
2022/11/16 12:01:41;;;;;;;111.18;50.67;;;;;;;14.80;95.83;99655.41;5006828;28;20045;-73
2022/11/16 12:04:46;;;;;;;101.07;46.30;;;;;;;12.95;85.54;99677.63;5007672;28;20046;-73
2022/11/16 12:07:32;;;;;;;104.38;51.45;;;;;;;12.51;84.56;99565.41;5002872;28;20458;-70
2022/11/16 12:10:08;;;;;;;364.83;211.93;;;;;;;12.95;86.54;99677.63;4988835;28;20060;-73
2022/11/16 12:12:54;;;;;;;301.58;175.30;;;;;;;12.60;87.34;99673.97;5007230;28;20052;-74
2022/11/16 12:15:48;;;;;;;324.90;178.40;;;;;;;11.43;88.87;99554.31;5005304;28;20437;-74